createdAt,value
2022-11-29T00:02:14.200Z,101502.38
2022-11-29T00:04:44.163Z,101502.90
2022-11-29T00:07:14.044Z,101501.86
2022-11-29T00:09:43.842Z,101502.13
2022-11-29T00:12:13.646Z,101507.05
2022-11-29T00:14:43.981Z,101509.11
2022-11-29T00:17:13.943Z,101506.83
2022-11-29T00:19:45.073Z,101509.94
2022-11-29T00:22:14.797Z,101508.14
2022-11-29T00:24:44.794Z,101503.30
2022-11-29T00:27:14.662Z,101503.30
2022-11-29T00:29:44.859Z,101510.37
2022-11-29T00:32:14.669Z,101511.72
2022-11-29T00:34:44.674Z,101518.72
2022-11-29T00:37:14.618Z,101515.09
2022-11-29T00:39:44.367Z,101514.06
2022-11-29T00:42:15.483Z,101519.70
2022-11-29T00:44:45.536Z,101517.94
2022-11-29T00:47:15.457Z,101514.31
2022-11-29T00:49:45.238Z,101519.05
2022-11-29T00:52:14.823Z,101526.36
2022-11-29T00:54:44.869Z,101521.83
2022-11-29T00:57:14.907Z,101522.44
2022-11-29T00:59:44.647Z,101516.05
2022-11-29T01:02:14.296Z,101510.99
2022-11-29T01:04:44.431Z,101510.99
2022-11-29T01:07:14.750Z,101520.72
2022-11-29T01:09:44.518Z,101523.69
2022-11-29T01:12:14.400Z,101530.59
2022-11-29T01:14:44.516Z,101524.42
2022-11-29T01:17:14.426Z,101525.41
2022-11-29T01:19:50.455Z,101528.25
2022-11-29T01:22:15.368Z,101526.76
2022-11-29T01:24:45.298Z,101524.83
2022-11-29T01:27:15.575Z,101538.41
2022-11-29T01:29:45.371Z,101537.72
2022-11-29T01:32:15.218Z,101540.58
2022-11-29T01:34:45.285Z,101540.58
2022-11-29T01:37:15.485Z,101539.88
2022-11-29T01:39:45.239Z,101546.40
2022-11-29T01:42:15.132Z,101544.98
2022-11-29T01:45:05.621Z,101545.83
2022-11-29T01:47:36.867Z,101543.95
2022-11-29T01:50:09.855Z,101551.78
2022-11-29T01:52:40.025Z,101550.37
2022-11-29T01:55:11.117Z,101560.15
2022-11-29T01:57:42.571Z,101562.37
2022-11-29T02:00:17.684Z,101555.64
2022-11-29T02:03:01.826Z,101550.70
2022-11-29T02:05:32.700Z,101552.39
2022-11-29T02:08:02.992Z,101553.70
2022-11-29T02:10:35.763Z,101561.92
2022-11-29T02:13:29.384Z,101560.06
2022-11-29T02:16:07.857Z,101565.05
2022-11-29T02:18:48.857Z,101567.00
2022-11-29T02:21:33.628Z,101568.80
2022-11-29T02:24:07.306Z,101564.66
2022-11-29T02:26:59.109Z,101560.84
2022-11-29T02:29:52.620Z,101564.00
2022-11-29T02:32:53.446Z,101564.00
2022-11-29T02:35:31.850Z,101563.74
2022-11-29T02:38:36.977Z,101562.44
2022-11-29T02:41:30.349Z,101569.44
2022-11-29T02:44:20.800Z,101570.20
2022-11-29T02:47:28.166Z,101569.36
2022-11-29T02:50:21.919Z,101571.52
2022-11-29T02:53:16.812Z,101574.52
2022-11-29T02:55:55.285Z,101575.33
2022-11-29T02:58:27.794Z,101572.59
2022-11-29T03:01:00.693Z,101574.23
2022-11-29T03:03:36.636Z,101574.52
2022-11-29T03:06:29.463Z,101582.13
2022-11-29T03:09:02.261Z,101580.16
2022-11-29T03:11:40.891Z,101583.53
2022-11-29T03:14:24.937Z,101581.28
2022-11-29T03:17:06.429Z,101578.98
2022-11-29T03:19:57.195Z,101583.92
2022-11-29T03:25:25.968Z,101588.20
2022-11-29T03:28:02.093Z,101590.97
2022-11-29T03:30:35.275Z,101595.65
2022-11-29T03:33:08.060Z,101598.84
2022-11-29T03:35:46.562Z,101603.92
2022-11-29T03:38:35.608Z,101602.13
2022-11-29T03:41:19.716Z,101601.81
2022-11-29T03:43:55.626Z,101613.82
2022-11-29T03:46:28.141Z,101617.34
2022-11-29T03:49:06.890Z,101613.55
2022-11-29T03:52:12.443Z,101614.11
2022-11-29T03:55:03.177Z,101619.38
2022-11-29T03:57:41.873Z,101619.27
2022-11-29T04:00:15.044Z,101620.31
2022-11-29T04:03:00.901Z,101620.45
2022-11-29T04:05:58.813Z,101621.67
2022-11-29T04:08:52.447Z,101638.01
2022-11-29T04:11:30.391Z,101635.38
2022-11-29T04:14:34.855Z,101643.37
2022-11-29T04:17:22.374Z,101638.25
2022-11-29T04:20:28.113Z,101642.38
2022-11-29T04:23:22.868Z,101647.42
2022-11-29T04:26:22.135Z,101646.67
2022-11-29T04:29:06.571Z,101644.73
2022-11-29T04:31:53.991Z,101652.58
2022-11-29T04:34:44.990Z,101657.75
2022-11-29T04:37:23.896Z,101649.56
2022-11-29T04:40:18.690Z,101657.52
2022-11-29T04:43:18.475Z,101651.59
2022-11-29T04:45:50.956Z,101658.54
2022-11-29T04:48:29.309Z,101660.42
2022-11-29T04:51:10.651Z,101661.30
2022-11-29T04:54:14.991Z,101665.86
2022-11-29T04:56:50.393Z,101673.38
2022-11-29T04:59:28.730Z,101677.13
2022-11-29T05:02:04.282Z,101673.08
2022-11-29T05:04:37.043Z,101673.89
2022-11-29T05:07:42.868Z,101685.34
2022-11-29T05:10:42.058Z,101682.28
2022-11-29T05:13:31.032Z,101688.81
2022-11-29T05:16:03.883Z,101695.23
2022-11-29T05:18:59.079Z,101694.39
2022-11-29T05:21:46.587Z,101699.13
2022-11-29T05:27:18.533Z,101709.72
2022-11-29T05:29:51.616Z,101713.98
2022-11-29T05:32:32.952Z,101714.11
2022-11-29T05:35:10.732Z,101710.84
2022-11-29T05:37:43.901Z,101711.54
2022-11-29T05:40:34.522Z,101717.38
2022-11-29T05:43:09.876Z,101720.22
2022-11-29T05:45:57.675Z,101712.95
2022-11-29T05:49:01.659Z,101721.70
2022-11-29T05:51:43.322Z,101724.94
2022-11-29T05:54:39.847Z,101731.68
2022-11-29T05:57:29.036Z,101731.55
2022-11-29T06:00:01.489Z,101737.34
2022-11-29T06:02:56.798Z,101728.83
2022-11-29T06:05:32.315Z,101738.35
2022-11-29T06:08:24.590Z,101740.42
2022-11-29T06:13:51.776Z,101735.14
2022-11-29T06:16:58.460Z,101735.14
2022-11-29T06:19:39.423Z,101761.13
2022-11-29T06:22:25.787Z,101762.36
2022-11-29T06:25:17.322Z,101767.97
2022-11-29T06:28:05.167Z,101772.94
2022-11-29T06:30:38.237Z,101773.78
2022-11-29T06:33:17.045Z,101776.95
2022-11-29T06:36:07.516Z,101774.25
2022-11-29T06:38:37.385Z,101774.25
2022-11-29T06:41:07.849Z,101784.81
2022-11-29T06:43:37.880Z,101774.24
2022-11-29T06:46:27.695Z,101776.64
2022-11-29T06:49:15.035Z,101782.27
2022-11-29T06:52:08.833Z,101799.13
2022-11-29T06:54:56.238Z,101802.85
2022-11-29T06:57:49.419Z,101806.09
2022-11-29T07:00:25.595Z,101806.09
2022-11-29T07:03:23.986Z,101815.44
2022-11-29T07:05:53.957Z,101815.95
2022-11-29T07:08:25.380Z,101817.66
2022-11-29T07:10:56.031Z,101830.41
2022-11-29T07:13:26.012Z,101830.41
2022-11-29T07:16:01.306Z,101831.75
2022-11-29T07:19:00.871Z,101832.47
2022-11-29T07:21:42.264Z,101833.81
2022-11-29T07:24:45.762Z,101836.69
2022-11-29T07:27:38.031Z,101841.30
2022-11-29T07:30:14.819Z,101846.89
2022-11-29T07:33:00.364Z,101853.87
2022-11-29T07:35:39.129Z,101857.80
2022-11-29T07:38:26.609Z,101862.74
2022-11-29T07:41:20.246Z,101865.94
2022-11-29T07:44:07.907Z,101861.70
2022-11-29T07:46:37.712Z,101865.29
2022-11-29T07:49:09.025Z,101864.10
2022-11-29T07:51:39.134Z,101864.77
2022-11-29T07:54:13.297Z,101872.91
2022-11-29T07:56:42.753Z,101871.56
2022-11-29T07:59:12.888Z,101878.86
2022-11-29T08:01:43.120Z,101879.05
2022-11-29T08:04:13.779Z,101878.53
2022-11-29T08:06:43.257Z,101879.55
2022-11-29T08:09:13.303Z,101887.20
2022-11-29T08:11:43.053Z,101884.46
2022-11-29T08:14:12.787Z,101888.88
2022-11-29T08:16:42.598Z,101896.03
2022-11-29T08:19:12.388Z,101887.52
2022-11-29T08:21:47.711Z,101889.92
2022-11-29T08:24:17.519Z,101889.91
2022-11-29T08:26:47.405Z,101894.16
2022-11-29T08:29:17.441Z,101893.19
2022-11-29T08:31:47.515Z,101892.31
2022-11-29T08:34:17.001Z,101892.31
2022-11-29T08:36:46.798Z,101898.23
2022-11-29T08:42:05.537Z,101900.94
2022-11-29T08:44:35.278Z,101896.00
2022-11-29T08:47:22.530Z,101904.88
2022-11-29T08:50:04.410Z,101908.30
2022-11-29T08:52:54.996Z,101908.97
2022-11-29T08:55:27.494Z,101914.91
2022-11-29T08:58:03.188Z,101920.19
2022-11-29T09:00:33.694Z,101926.31
2022-11-29T09:03:22.376Z,101929.41
2022-11-29T09:05:52.537Z,101926.84
2022-11-29T09:08:22.743Z,101927.98
2022-11-29T09:10:53.159Z,101928.17
2022-11-29T09:13:22.964Z,101933.09
2022-11-29T09:15:52.704Z,101937.58
2022-11-29T09:18:22.654Z,101941.64
2022-11-29T09:20:52.699Z,101937.25
2022-11-29T09:23:22.759Z,101945.70
2022-11-29T09:25:52.510Z,101953.98
2022-11-29T09:28:22.247Z,101960.84
2022-11-29T09:30:52.016Z,101960.98
2022-11-29T09:33:22.090Z,101966.78
2022-11-29T09:35:52.158Z,101968.05
2022-11-29T09:38:21.742Z,101981.83
2022-11-29T09:40:59.751Z,101981.83
2022-11-29T09:43:41.365Z,101973.45
2022-11-29T09:46:18.234Z,101977.50
2022-11-29T09:48:59.724Z,101977.47
2022-11-29T09:51:50.325Z,101978.70
2022-11-29T09:54:37.918Z,101983.19
2022-11-29T09:57:11.027Z,101977.75
2022-11-29T09:59:46.761Z,101974.47
2022-11-29T10:02:34.269Z,101983.54
2022-11-29T10:05:29.929Z,101983.54
2022-11-29T10:08:11.189Z,101984.89
2022-11-29T10:10:46.228Z,101985.74
2022-11-29T10:13:27.505Z,101986.42
2022-11-29T10:16:09.322Z,101985.73
2022-11-29T10:18:44.866Z,101982.84
2022-11-29T10:21:17.553Z,101991.05
2022-11-29T10:23:53.123Z,101989.00
2022-11-29T10:26:24.391Z,101988.64
2022-11-29T10:28:55.850Z,101983.03
2022-11-29T10:31:28.842Z,101983.03
2022-11-29T10:34:01.508Z,101988.12
2022-11-29T10:36:37.134Z,101986.61
2022-11-29T10:39:11.484Z,101986.61
2022-11-29T10:41:39.421Z,101991.88
2022-11-29T10:44:13.767Z,101979.63
2022-11-29T10:46:43.698Z,101982.52
2022-11-29T10:49:16.546Z,101982.86
2022-11-29T10:51:47.636Z,101977.89
2022-11-29T10:54:35.532Z,101977.75
2022-11-29T10:57:08.325Z,101978.95
2022-11-29T10:59:38.442Z,101983.02
2022-11-29T11:02:20.077Z,101974.86
2022-11-29T11:04:50.257Z,101983.69
2022-11-29T11:07:26.135Z,101979.97
2022-11-29T11:09:57.021Z,101983.21
2022-11-29T11:12:30.240Z,101985.09
2022-11-29T11:15:15.538Z,101984.39
2022-11-29T11:18:00.502Z,101988.66
2022-11-29T11:20:32.472Z,101983.88
2022-11-29T11:23:05.487Z,101988.81
2022-11-29T11:25:41.628Z,101987.27
2022-11-29T11:28:16.350Z,101990.17
2022-11-29T11:30:51.405Z,101986.92
2022-11-29T11:33:24.844Z,101990.30
2022-11-29T11:36:23.438Z,101991.53
2022-11-29T11:39:02.335Z,101990.16
2022-11-29T11:41:52.475Z,101997.16
2022-11-29T11:44:58.328Z,101995.61
2022-11-29T11:47:02.704Z,101997.17
2022-11-29T11:49:37.958Z,101999.20
2022-11-29T11:52:12.415Z,102001.71
2022-11-29T11:54:45.756Z,102007.19
2022-11-29T11:57:23.874Z,102003.09
2022-11-29T11:59:56.264Z,102012.60
2022-11-29T12:02:39.939Z,102011.29
2022-11-29T12:05:15.543Z,102015.02
2022-11-29T12:08:08.209Z,102009.08
2022-11-29T12:10:25.737Z,102007.89
2022-11-29T12:12:57.504Z,102016.37
2022-11-29T12:15:33.213Z,102014.67
2022-11-29T12:18:14.171Z,102021.32
2022-11-29T12:20:58.271Z,102019.77
2022-11-29T12:23:33.692Z,102014.33
2022-11-29T12:26:10.652Z,102026.61
2022-11-29T12:28:43.684Z,102023.86
2022-11-29T12:31:19.351Z,102029.48
2022-11-29T12:34:00.438Z,102040.41
2022-11-29T12:36:45.176Z,102040.41
2022-11-29T12:39:44.586Z,102040.39
2022-11-29T12:42:42.840Z,102040.41
2022-11-29T12:45:27.513Z,102040.72
2022-11-29T12:48:09.233Z,102037.33
2022-11-29T12:50:59.644Z,102048.41
2022-11-29T12:53:38.027Z,102050.13
2022-11-29T12:56:25.963Z,102051.30
2022-11-29T12:59:21.055Z,102060.50
2022-11-29T13:02:10.314Z,102063.55
2022-11-29T13:04:59.622Z,102065.26
2022-11-29T13:07:43.642Z,102073.27
2022-11-29T13:10:24.330Z,102064.41
2022-11-29T13:13:05.971Z,102064.41
2022-11-29T13:15:56.562Z,102070.74
2022-11-29T13:18:37.904Z,102070.91
2022-11-29T13:21:16.368Z,102070.70
2022-11-29T13:24:10.104Z,102076.84
2022-11-29T13:26:42.717Z,102076.84
2022-11-29T13:29:19.573Z,102071.56
2022-11-29T13:31:49.881Z,102071.41
2022-11-29T13:34:25.236Z,102069.19
2022-11-29T13:37:10.107Z,102077.87
2022-11-29T13:39:42.638Z,102081.63
2022-11-29T13:42:15.423Z,102084.36
2022-11-29T13:45:07.474Z,102084.36
2022-11-29T13:47:43.103Z,102080.78
2022-11-29T13:50:43.609Z,102079.58
2022-11-29T13:53:25.124Z,102085.20
2022-11-29T13:56:03.076Z,102085.20
2022-11-29T13:58:40.363Z,102080.78
2022-11-29T14:01:13.551Z,102092.02
2022-11-29T14:03:46.281Z,102088.43
2022-11-29T14:06:20.886Z,102082.47
2022-11-29T14:09:18.395Z,102097.98
2022-11-29T14:11:39.488Z,102093.38
2022-11-29T14:14:18.223Z,102092.32
2022-11-29T14:16:53.859Z,102092.86
2022-11-29T14:19:35.463Z,102091.31
2022-11-29T14:22:19.077Z,102089.45
2022-11-29T14:25:00.899Z,102083.48
2022-11-29T14:27:33.740Z,102090.48
2022-11-29T14:30:04.028Z,102093.88
2022-11-29T14:32:46.508Z,102088.41
2022-11-29T14:35:24.510Z,102089.24
2022-11-29T14:38:06.126Z,102092.51
2022-11-29T14:40:44.514Z,102099.48
2022-11-29T14:43:23.407Z,102094.70
2022-11-29T14:46:14.392Z,102097.13
2022-11-29T14:48:47.304Z,102099.48
2022-11-29T14:51:19.791Z,102092.87
2022-11-29T14:53:55.371Z,102102.53
2022-11-29T14:56:38.070Z,102099.14
2022-11-29T14:59:43.634Z,102094.87
2022-11-29T15:02:31.685Z,102096.41
2022-11-29T15:05:19.958Z,102094.53
2022-11-29T15:07:55.452Z,102099.17
2022-11-29T15:10:28.337Z,102094.03
2022-11-29T15:13:01.290Z,102100.16
2022-11-29T15:15:37.196Z,102100.16
2022-11-29T15:18:19.302Z,102102.51
2022-11-29T15:21:13.120Z,102115.02
2022-11-29T15:23:43.975Z,102109.83
2022-11-29T15:26:21.540Z,102112.41
2022-11-29T15:28:51.278Z,102110.50
2022-11-29T15:31:22.576Z,102116.31
2022-11-29T15:33:52.305Z,102114.27
2022-11-29T15:36:24.990Z,102115.13
2022-11-29T15:38:58.759Z,102117.70
2022-11-29T15:41:30.937Z,102115.61
2022-11-29T15:44:03.498Z,102119.53
2022-11-29T15:46:35.295Z,102123.27
2022-11-29T15:49:18.757Z,102115.05
2022-11-29T15:51:51.553Z,102118.98
2022-11-29T15:54:36.407Z,102117.83
2022-11-29T15:57:17.609Z,102122.36
2022-11-29T15:59:53.108Z,102126.41
2022-11-29T16:02:29.111Z,102124.41
2022-11-29T16:05:13.616Z,102128.21
2022-11-29T16:07:45.121Z,102124.33
2022-11-29T16:10:19.619Z,102126.59
2022-11-29T16:13:00.693Z,102124.06
2022-11-29T16:15:33.479Z,102127.81
2022-11-29T16:18:12.307Z,102128.97
2022-11-29T16:20:42.326Z,102128.97
2022-11-29T16:23:14.764Z,102133.42
2022-11-29T16:26:03.966Z,102131.86
2022-11-29T16:28:36.702Z,102131.86
2022-11-29T16:31:06.883Z,102127.98
2022-11-29T16:33:38.647Z,102144.02
2022-11-29T16:36:19.997Z,102135.47
2022-11-29T16:38:52.598Z,102135.02
2022-11-29T16:41:34.323Z,102135.22
2022-11-29T16:44:05.979Z,102146.79
2022-11-29T16:46:40.351Z,102136.62
2022-11-29T16:49:33.677Z,102135.80
2022-11-29T16:52:05.042Z,102145.06
2022-11-29T16:54:34.863Z,102148.43
2022-11-29T16:57:07.197Z,102148.10
2022-11-29T16:59:38.507Z,102150.61
2022-11-29T17:02:13.909Z,102153.73
2022-11-29T17:04:44.486Z,102154.95
2022-11-29T17:07:23.432Z,102154.95
2022-11-29T17:09:53.436Z,102153.47
2022-11-29T17:12:23.180Z,102147.38
2022-11-29T17:14:53.236Z,102148.91
2022-11-29T17:17:22.989Z,102146.36
2022-11-29T17:19:53.010Z,102149.99
2022-11-29T17:22:22.758Z,102141.97
2022-11-29T17:24:53.419Z,102141.97
2022-11-29T17:27:23.804Z,102145.63
2022-11-29T17:29:53.837Z,102136.83
2022-11-29T17:32:26.790Z,102150.98
2022-11-29T17:34:55.378Z,102146.83
2022-11-29T17:37:25.549Z,102156.69
2022-11-29T17:39:56.560Z,102154.58
2022-11-29T17:42:26.554Z,102166.48
2022-11-29T17:44:56.670Z,102163.46
2022-11-29T17:47:26.103Z,102164.17
2022-11-29T17:49:56.237Z,102167.86
2022-11-29T17:52:25.963Z,102174.37
2022-11-29T17:54:55.988Z,102175.33
2022-11-29T17:57:25.727Z,102179.02
2022-11-29T17:59:55.854Z,102181.74
2022-11-29T18:02:25.612Z,102183.07
2022-11-29T18:04:55.692Z,102183.92
2022-11-29T18:07:25.542Z,102186.81
2022-11-29T18:09:55.545Z,102188.59
2022-11-29T18:12:25.581Z,102188.94
2022-11-29T18:14:55.337Z,102186.72
2022-11-29T18:17:25.084Z,102189.14
2022-11-29T18:19:54.836Z,102190.42
2022-11-29T18:22:24.605Z,102190.42
2022-11-29T18:25:05.402Z,102194.16
2022-11-29T18:27:26.064Z,102203.57
2022-11-29T18:29:55.808Z,102205.61
2022-11-29T18:32:25.617Z,102205.61
2022-11-29T18:34:55.737Z,102202.79
2022-11-29T18:37:54.455Z,102201.44
2022-11-29T18:39:57.071Z,102201.56
2022-11-29T18:42:26.811Z,102207.45
2022-11-29T18:44:58.806Z,102204.07
2022-11-29T18:47:29.599Z,102201.05
2022-11-29T18:49:59.671Z,102195.11
2022-11-29T18:52:30.055Z,102195.11
2022-11-29T18:54:59.794Z,102191.31
2022-11-29T18:57:29.564Z,102199.14
2022-11-29T18:59:59.312Z,102207.06
2022-11-29T19:02:28.819Z,102199.41
2022-11-29T19:04:58.607Z,102208.42
2022-11-29T19:07:29.269Z,102200.03
2022-11-29T19:09:59.117Z,102207.42
2022-11-29T19:12:29.124Z,102205.47
2022-11-29T19:14:58.616Z,102215.17
2022-11-29T19:17:29.424Z,102212.43
2022-11-29T19:19:59.368Z,102212.80
2022-11-29T19:22:29.884Z,102213.66
2022-11-29T19:25:00.597Z,102224.38
2022-11-29T19:27:30.319Z,102227.78
2022-11-29T19:30:00.086Z,102225.73
2022-11-29T19:32:29.904Z,102227.30
2022-11-29T19:34:59.918Z,102233.48
2022-11-29T19:37:29.659Z,102227.55
2022-11-29T19:39:59.386Z,102231.30
2022-11-29T19:42:28.847Z,102226.02
2022-11-29T19:45:16.641Z,102231.52
2022-11-29T19:47:30.038Z,102228.45
2022-11-29T19:50:02.653Z,102231.40
2022-11-29T19:52:31.360Z,102228.81
2022-11-29T19:55:01.115Z,102231.86
2022-11-29T19:57:30.844Z,102228.66
2022-11-29T20:00:00.700Z,102231.42
2022-11-29T20:02:32.307Z,102232.96
2022-11-29T20:05:02.201Z,102232.96
2022-11-29T20:07:32.020Z,102235.00
2022-11-29T20:10:01.755Z,102235.00
2022-11-29T20:12:32.714Z,102234.44
2022-11-29T20:15:02.468Z,102234.95
2022-11-29T20:17:32.589Z,102228.55
2022-11-29T20:20:02.439Z,102235.55
2022-11-29T20:22:32.253Z,102237.92
2022-11-29T20:25:01.991Z,102240.97
2022-11-29T20:27:32.027Z,102243.11
2022-11-29T20:30:01.779Z,102243.09
2022-11-29T20:32:31.317Z,102243.09
2022-11-29T20:35:02.402Z,102248.67
2022-11-29T20:37:35.933Z,102246.23
2022-11-29T20:40:08.653Z,102250.39
2022-11-29T20:42:41.985Z,102246.60
2022-11-29T20:45:14.344Z,102251.17
2022-11-29T20:47:50.323Z,102246.91
2022-11-29T20:50:23.796Z,102250.23
2022-11-29T20:53:02.721Z,102247.51
2022-11-29T20:55:32.596Z,102256.25
2022-11-29T20:58:02.414Z,102253.82
2022-11-29T21:00:32.155Z,102257.90
2022-11-29T21:03:01.988Z,102257.90
2022-11-29T21:05:31.738Z,102257.81
2022-11-29T21:08:02.334Z,102261.84
2022-11-29T21:10:32.149Z,102258.39
2022-11-29T21:13:02.239Z,102262.21
2022-11-29T21:15:32.327Z,102262.02
2022-11-29T21:18:02.317Z,102262.66
2022-11-29T21:20:32.371Z,102266.75
2022-11-29T21:23:05.132Z,102263.39
2022-11-29T21:25:46.506Z,102268.42
2022-11-29T21:28:17.706Z,102265.19
2022-11-29T21:30:47.591Z,102265.19
2022-11-29T21:33:17.589Z,102266.98
2022-11-29T21:35:48.055Z,102270.98
2022-11-29T21:38:21.134Z,102263.66
2022-11-29T21:40:50.889Z,102270.17
2022-11-29T21:43:22.799Z,102275.93
2022-11-29T21:45:52.074Z,102272.08
2022-11-29T21:48:37.712Z,102272.08
2022-11-29T21:51:09.088Z,102274.23
2022-11-29T21:53:40.282Z,102280.72
2022-11-29T21:56:12.091Z,102292.73
2022-11-29T21:58:42.163Z,102288.69
2022-11-29T22:01:14.899Z,102292.45
2022-11-29T22:03:45.034Z,102291.72
2022-11-29T22:06:23.209Z,102286.34
2022-11-29T22:08:52.948Z,102286.14
2022-11-29T22:11:34.707Z,102295.07
2022-11-29T22:14:15.000Z,102293.02
2022-11-29T22:16:47.836Z,102292.07
2022-11-29T22:19:29.435Z,102292.07
2022-11-29T22:22:04.600Z,102298.77
2022-11-29T22:24:36.565Z,102298.77
2022-11-29T22:27:06.557Z,102295.34
2022-11-29T22:29:36.372Z,102290.06
2022-11-29T22:32:06.753Z,102291.31
2022-11-29T22:34:36.483Z,102286.72
2022-11-29T22:37:06.237Z,102290.66
2022-11-29T22:39:35.720Z,102289.89
2022-11-29T22:42:06.656Z,102288.55
2022-11-29T22:44:36.412Z,102288.83
2022-11-29T22:47:06.212Z,102293.42
2022-11-29T22:49:35.772Z,102295.63
2022-11-29T22:52:06.733Z,102291.50
2022-11-29T22:54:36.460Z,102292.62
2022-11-29T22:57:06.234Z,102294.72
2022-11-29T22:59:36.332Z,102297.05
2022-11-29T23:02:07.119Z,102296.38
2022-11-29T23:04:37.181Z,102311.23
2022-11-29T23:07:07.230Z,102307.52
2022-11-29T23:09:36.670Z,102313.20
2022-11-29T23:12:08.086Z,102312.55
2022-11-29T23:14:37.836Z,102316.98
2022-11-29T23:17:07.573Z,102317.81
2022-11-29T23:19:37.306Z,102319.91
2022-11-29T23:22:08.484Z,102318.59
2022-11-29T23:24:39.931Z,102326.81
2022-11-29T23:27:09.748Z,102327.41
2022-11-29T23:29:39.467Z,102318.08
2022-11-29T23:32:09.587Z,102320.45
2022-11-29T23:34:39.367Z,102323.52
2022-11-29T23:37:09.630Z,102320.56
2022-11-29T23:39:39.362Z,102327.37
2022-11-29T23:42:09.120Z,102323.80
2022-11-29T23:44:38.882Z,102317.22
2022-11-29T23:47:08.616Z,102328.70
2022-11-29T23:49:39.743Z,102321.45
2022-11-29T23:52:10.493Z,102326.22
2022-11-29T23:54:40.234Z,102326.22
2022-11-29T23:57:09.982Z,102326.66
2022-11-29T23:59:39.725Z,102327.92
